Airfield :







YOU CAN JOIN US ON...

 
LOGIN :

Register | Disclaimer

   EN    FR    IT 

 









Legend :    VFR   Marginal VFR   IFR   Intensive IFR   Very Intensive IFR
Visi :
Ceiling :
>= 8 km
>= 3000ft
5 to 8 km
1000 to 3000 ft
1500m to 5 km
500 to 1000 ft
800 to 1500m
200 to 500 ft
< 800m
< 200 ft
Symbols :   Thunderstorms  Fog  Heavy snow  Heavy precipitations  Wind > 20 kt






- Airport Elevation : 118 ft
- IATA code : YUL


CYUL - Montréal - Pierre-Elliott-Trudeau Int.

CURRENT METAR :
  • 040200Z 23007KT 15SM FEW150 FEW250 24/17 A2987 RMK AC1CI1 AC TR CI TR SLP115 DENSITY ALT 1300FT

EXPIRED METARs :
  • 040100Z 24005KT 15SM FEW065 SCT090 BKN150 BKN240 25/15 A2985 RMK CF1AC3AC2CI1 CF TR CI TR SLP109 DENSITY ALT 1400FT
  • 040000Z 24006KT 15SM FEW070 BKN090 BKN180 28/15 A2984 RMK CU1AC5AC2 CU TR SLP107 DENSITY ALT 1700FT

TAF TAF CYUL
Valid from the 04 at 00:00 until the 05 at 00:00 UTC


032338Z 0400/0424 VRB03KT P6SM FEW060 SCT150
BECMG 0403/0405 34005KT
BECMG 0408/0410 07005KT
FM041200 VRB03KT P6SM FEW070
BECMG 0416/0418 27007KT
FM042000 30012KT P6SM SCT100 RMK NXT FCST BY 040300Z
ATIS : ENG : +1 514-633-3037 FRA : +1 514-633-3034
CZUL FIR / North America



MET'MAP, your aeronautical weather chart ! - Copyright ORBIFLY December 2007 - Disclaimer

ORBIFLY MET'MAP TEAM :

Programming & Development : Alexandra Zaïnal
Concept & original design : Baudouin d'Aumeries
Assistance for programming : Marc-Olivier Méhu
Technical & hardware support : Manuel Goepfert

Contact : metmap@orbifly.com




SOURCES & CREDITS :

   NOAA